createdAt,value
2022-08-15T00:00:00.105Z,25.10
2022-08-15T00:02:33.976Z,25.05
2022-08-15T00:05:17.529Z,25.01
2022-08-15T00:07:48.227Z,24.94
2022-08-15T00:11:01.733Z,24.89
2022-08-15T00:13:24.537Z,24.85
2022-08-15T00:15:58.169Z,24.95
2022-08-15T00:18:28.849Z,24.80
2022-08-15T00:20:58.797Z,24.67
2022-08-15T00:23:27.838Z,24.61
2022-08-15T00:26:28.741Z,24.57
2022-08-15T00:28:56.433Z,24.59
2022-08-15T00:31:40.874Z,24.51
2022-08-15T00:34:39.928Z,24.48
2022-08-15T00:37:02.073Z,24.46
2022-08-15T00:39:37.585Z,24.46
2022-08-15T00:42:13.689Z,24.45
2022-08-15T00:45:01.130Z,24.40
2022-08-15T00:47:39.615Z,24.43
2022-08-15T00:50:32.802Z,24.43
2022-08-15T00:53:04.149Z,24.40
2022-08-15T00:55:38.014Z,24.40
2022-08-15T00:58:06.162Z,24.37
2022-08-15T01:00:46.570Z,24.32
2022-08-15T01:03:26.265Z,24.31
2022-08-15T01:05:58.788Z,24.21
2022-08-15T01:08:39.048Z,24.13
2022-08-15T01:11:33.907Z,24.01
2022-08-15T01:14:56.226Z,23.88
2022-08-15T01:16:55.423Z,23.78
2022-08-15T01:19:29.634Z,23.77
2022-08-15T01:22:54.306Z,23.71
2022-08-15T01:26:38.988Z,23.60
2022-08-15T01:28:31.989Z,23.55
2022-08-15T01:31:22.676Z,23.51
2022-08-15T01:33:58.812Z,23.47
2022-08-15T01:36:34.396Z,23.44
2022-08-15T01:39:45.164Z,23.41
2022-08-15T01:42:21.502Z,23.33
2022-08-15T01:44:59.581Z,23.31
2022-08-15T01:48:20.553Z,23.34
2022-08-15T01:50:59.508Z,23.39
2022-08-15T01:53:54.636Z,23.41
2022-08-15T01:56:45.593Z,23.44
2022-08-15T01:59:23.453Z,23.50
2022-08-15T02:02:42.356Z,23.43
2022-08-15T02:04:56.544Z,23.28
2022-08-15T02:07:32.560Z,23.17
2022-08-15T02:10:20.882Z,23.10
2022-08-15T02:13:03.278Z,23.03
2022-08-15T02:15:37.504Z,22.96
2022-08-15T02:18:05.302Z,22.90
2022-08-15T02:20:39.281Z,22.83
2022-08-15T02:23:17.361Z,22.76
2022-08-15T02:25:49.567Z,22.69
2022-08-15T02:28:34.938Z,22.61
2022-08-15T02:31:17.862Z,22.54
2022-08-15T02:33:58.414Z,22.45
2022-08-15T02:36:30.726Z,22.41
2022-08-15T02:39:05.839Z,22.38
2022-08-15T02:41:43.150Z,22.36
2022-08-15T02:44:19.231Z,22.32
2022-08-15T02:47:03.744Z,22.30
2022-08-15T02:49:48.194Z,22.29
2022-08-15T02:52:21.270Z,22.30
2022-08-15T02:54:58.872Z,22.30
2022-08-15T02:57:30.526Z,22.32
2022-08-15T02:59:58.114Z,22.35
2022-08-15T03:02:31.700Z,22.36
2022-08-15T03:05:03.689Z,22.38
2022-08-15T03:07:33.877Z,22.41
2022-08-15T03:10:04.556Z,22.42
2022-08-15T03:13:03.246Z,22.44
2022-08-15T03:15:57.778Z,22.42
2022-08-15T03:18:34.239Z,22.38
2022-08-15T03:21:11.164Z,22.37
2022-08-15T03:23:43.491Z,22.33
2022-08-15T03:26:25.795Z,22.30
2022-08-15T03:29:05.005Z,22.25
2022-08-15T03:31:41.840Z,22.23
2022-08-15T03:34:16.997Z,22.20
2022-08-15T03:36:52.939Z,22.18
2022-08-15T03:39:23.822Z,22.13
2022-08-15T03:41:54.130Z,22.09
2022-08-15T03:44:26.482Z,22.03
2022-08-15T03:46:56.854Z,21.99
2022-08-15T03:50:22.477Z,21.96
2022-08-15T03:52:12.278Z,21.89
2022-08-15T03:54:45.737Z,21.86
2022-08-15T03:57:17.001Z,21.82
2022-08-15T03:59:45.207Z,21.81
2022-08-15T04:02:30.252Z,21.76
2022-08-15T04:04:59.938Z,21.72
2022-08-15T04:07:40.994Z,21.70
2022-08-15T04:10:36.515Z,21.70
2022-08-15T04:13:08.640Z,21.66
2022-08-15T04:15:37.357Z,21.65
2022-08-15T04:18:44.282Z,21.64
2022-08-15T04:20:58.253Z,21.62
2022-08-15T04:23:33.003Z,21.59
2022-08-15T04:26:07.995Z,21.56
2022-08-15T04:28:54.077Z,21.53
2022-08-15T04:31:24.292Z,21.52
2022-08-15T04:34:44.523Z,21.51
2022-08-15T04:36:39.826Z,21.51
2022-08-15T04:39:07.891Z,21.49
2022-08-15T04:41:50.160Z,21.47
2022-08-15T04:44:20.085Z,21.50
2022-08-15T04:46:56.518Z,21.49
2022-08-15T04:49:24.165Z,21.43
2022-08-15T04:51:51.877Z,21.39
2022-08-15T04:54:20.417Z,21.35
2022-08-15T04:57:03.809Z,21.31
2022-08-15T04:59:35.084Z,21.29
2022-08-15T05:02:55.110Z,21.30
2022-08-15T05:05:13.099Z,21.31
2022-08-15T05:07:58.274Z,21.32
2022-08-15T05:10:33.108Z,21.35
2022-08-15T05:13:19.061Z,21.37
2022-08-15T05:15:53.690Z,21.38
2022-08-15T05:18:30.287Z,21.39
2022-08-15T05:20:59.723Z,21.44
2022-08-15T05:23:33.250Z,21.53
2022-08-15T05:26:05.796Z,21.60
2022-08-15T05:28:58.086Z,21.72
2022-08-15T05:31:32.652Z,21.83
2022-08-15T05:34:04.951Z,21.95
2022-08-15T05:36:39.670Z,22.03
2022-08-15T05:39:35.118Z,22.09
2022-08-15T05:42:44.473Z,22.15
2022-08-15T05:45:45.114Z,22.18
2022-08-15T05:48:34.171Z,22.18
2022-08-15T05:51:42.714Z,22.22
2022-08-15T05:54:48.290Z,22.32
2022-08-15T05:57:21.135Z,22.36
2022-08-15T06:00:07.419Z,22.39
2022-08-15T06:02:59.941Z,22.40
2022-08-15T06:05:45.541Z,22.42
2022-08-15T06:08:50.184Z,22.40
2022-08-15T06:11:28.896Z,22.37
2022-08-15T06:14:14.346Z,22.35
2022-08-15T06:16:59.710Z,22.34
2022-08-15T06:19:40.679Z,22.34
2022-08-15T06:22:30.815Z,22.37
2022-08-15T06:25:04.369Z,22.38
2022-08-15T06:27:58.674Z,22.42
2022-08-15T06:30:47.367Z,22.47
2022-08-15T06:33:57.277Z,22.52
2022-08-15T06:36:44.058Z,22.55
2022-08-15T06:39:36.070Z,22.57
2022-08-15T06:42:48.793Z,22.59
2022-08-15T06:45:37.385Z,22.59
2022-08-15T06:48:55.842Z,22.59
2022-08-15T06:51:15.451Z,22.60
2022-08-15T06:53:58.093Z,22.62
2022-08-15T06:57:19.545Z,22.63
2022-08-15T07:00:34.001Z,22.69
2022-08-15T07:03:49.132Z,22.70
2022-08-15T07:06:34.147Z,22.68
2022-08-15T07:09:41.302Z,22.76
2022-08-15T07:12:52.545Z,22.84
2022-08-15T07:16:01.471Z,22.91
2022-08-15T07:18:50.720Z,23.00
2022-08-15T07:21:53.359Z,23.04
2022-08-15T07:24:35.668Z,23.10
2022-08-15T07:27:07.111Z,23.22
2022-08-15T07:29:55.541Z,23.34
2022-08-15T07:32:33.911Z,23.43
2022-08-15T07:35:27.769Z,23.56
2022-08-15T07:38:25.312Z,23.51
2022-08-15T07:40:56.311Z,23.53
2022-08-15T07:43:36.329Z,23.51
2022-08-15T07:46:23.758Z,23.53
2022-08-15T07:49:18.058Z,23.65
2022-08-15T07:51:58.740Z,23.72
2022-08-15T07:54:51.146Z,23.76
2022-08-15T08:00:38.967Z,23.76
2022-08-15T08:03:34.079Z,23.74
2022-08-15T08:06:34.962Z,23.79
2022-08-15T08:09:31.901Z,23.91
2022-08-15T08:12:57.121Z,24.13
2022-08-15T08:15:44.999Z,24.32
2022-08-15T08:18:43.313Z,24.47
2022-08-15T08:21:19.236Z,24.95
2022-08-15T08:24:27.819Z,25.63
2022-08-15T08:27:20.401Z,26.13
2022-08-15T08:30:43.531Z,26.11
2022-08-15T08:33:44.688Z,25.83
2022-08-15T08:36:37.148Z,25.66
2022-08-15T08:39:33.054Z,25.53
2022-08-15T08:42:27.969Z,25.36
2022-08-15T08:45:09.467Z,25.25
2022-08-15T08:48:36.487Z,25.17
2022-08-15T08:51:30.411Z,24.98
2022-08-15T08:54:28.841Z,24.88
2022-08-15T08:57:08.661Z,24.72
2022-08-15T09:00:03.403Z,24.67
2022-08-15T09:03:07.641Z,24.59
2022-08-15T09:05:52.585Z,24.54
2022-08-15T09:08:29.275Z,24.48
2022-08-15T09:11:06.061Z,24.40
2022-08-15T09:13:39.683Z,24.37
2022-08-15T09:16:12.975Z,24.33
2022-08-15T09:19:12.358Z,24.32
2022-08-15T09:21:39.873Z,24.26
2022-08-15T09:24:36.693Z,24.21
2022-08-15T09:27:16.531Z,24.14
2022-08-15T09:30:02.667Z,24.08
2022-08-15T09:33:23.573Z,23.95
2022-08-15T09:36:49.891Z,23.81
2022-08-15T09:39:44.629Z,23.69
2022-08-15T09:42:35.422Z,23.65
2022-08-15T09:45:45.306Z,23.63
2022-08-15T09:48:46.195Z,23.78
2022-08-15T09:52:35.399Z,24.02
2022-08-15T09:55:17.741Z,24.17
2022-08-15T09:57:53.511Z,24.25
2022-08-15T10:00:53.916Z,24.30
2022-08-15T10:03:44.370Z,24.37
2022-08-15T10:06:35.465Z,24.52
2022-08-15T10:09:17.722Z,24.62
2022-08-15T10:12:01.740Z,24.64
2022-08-15T10:15:03.972Z,24.69
2022-08-15T10:17:35.965Z,24.66
2022-08-15T10:20:19.594Z,24.70
2022-08-15T10:23:02.290Z,24.69
2022-08-15T10:25:42.540Z,24.72
2022-08-15T10:28:37.081Z,24.80
2022-08-15T10:31:03.850Z,25.00
2022-08-15T10:33:37.930Z,25.16
2022-08-15T10:36:20.914Z,25.21
2022-08-15T10:39:34.277Z,25.18
2022-08-15T10:42:47.404Z,25.10
2022-08-15T10:45:48.085Z,25.07
2022-08-15T10:48:55.004Z,24.98
2022-08-15T10:51:59.216Z,24.84
2022-08-15T10:55:14.438Z,24.70
2022-08-15T10:57:49.733Z,24.64
2022-08-15T11:00:51.478Z,24.65
2022-08-15T11:04:48.081Z,24.65
2022-08-15T11:06:26.727Z,24.64
2022-08-15T11:09:06.581Z,24.63
2022-08-15T11:11:43.181Z,24.63
2022-08-15T11:14:32.428Z,24.64
2022-08-15T11:17:02.138Z,24.66
2022-08-15T11:20:06.783Z,24.63
2022-08-15T11:22:47.789Z,24.61
2022-08-15T11:25:23.473Z,24.64
2022-08-15T11:28:37.244Z,24.71
2022-08-15T11:31:08.690Z,24.81
2022-08-15T11:33:42.753Z,24.89
2022-08-15T11:36:29.746Z,25.01
2022-08-15T11:39:16.214Z,25.10
2022-08-15T11:41:57.219Z,25.16
2022-08-15T11:44:37.945Z,25.22
2022-08-15T11:47:07.036Z,25.27
2022-08-15T11:49:46.424Z,25.26
2022-08-15T11:52:52.961Z,25.23
2022-08-15T11:55:31.788Z,25.26
2022-08-15T11:58:29.849Z,25.30
2022-08-15T12:01:01.231Z,25.32
2022-08-15T12:06:41.820Z,25.46
2022-08-15T12:09:42.353Z,25.60
2022-08-15T12:12:38.012Z,25.78
2022-08-15T12:13:10.365Z,25.37
2022-08-15T12:15:32.752Z,25.78
2022-08-15T12:18:32.317Z,25.76
2022-08-15T12:21:13.617Z,25.87
2022-08-15T12:23:53.750Z,26.32
2022-08-15T12:26:40.610Z,26.88
2022-08-15T12:29:13.411Z,27.40
2022-08-15T12:31:43.914Z,27.53
2022-08-15T12:34:32.301Z,27.43
2022-08-15T12:37:10.432Z,27.35
2022-08-15T12:39:41.454Z,27.27
2022-08-15T12:42:49.307Z,27.13
2022-08-15T12:45:15.554Z,27.00
2022-08-15T12:48:05.073Z,26.89
2022-08-15T12:50:31.710Z,26.80
2022-08-15T12:52:59.965Z,26.68
2022-08-15T12:55:26.921Z,26.58
2022-08-15T12:57:54.931Z,26.53
2022-08-15T13:00:35.229Z,26.61
2022-08-15T13:03:28.014Z,26.73
2022-08-15T13:06:32.278Z,26.76
2022-08-15T13:09:01.291Z,26.79
2022-08-15T13:11:28.182Z,26.89
2022-08-15T13:13:55.439Z,27.18
2022-08-15T13:17:06.019Z,27.57
2022-08-15T13:19:23.935Z,27.69
2022-08-15T13:22:32.834Z,27.76
2022-08-15T13:25:01.237Z,27.89
2022-08-15T13:27:31.035Z,28.02
2022-08-15T13:30:00.781Z,28.11
2022-08-15T13:32:29.288Z,28.18
2022-08-15T13:34:56.185Z,28.18
2022-08-15T13:38:02.382Z,28.38
2022-08-15T13:40:29.040Z,28.42
2022-08-15T13:43:03.317Z,28.53
2022-08-15T13:45:57.600Z,28.72
2022-08-15T13:48:36.558Z,28.55
2022-08-15T13:51:20.578Z,28.27
2022-08-15T13:54:31.363Z,28.00
2022-08-15T13:56:54.775Z,27.89
2022-08-15T13:59:21.750Z,27.61
2022-08-15T14:01:53.241Z,27.37
2022-08-15T14:04:43.103Z,27.26
2022-08-15T14:07:50.762Z,27.11
2022-08-15T14:11:11.664Z,27.05
2022-08-15T14:13:12.855Z,26.99
2022-08-15T14:16:09.047Z,26.85
2022-08-15T14:18:51.129Z,26.65
2022-08-15T14:21:26.424Z,26.50
2022-08-15T14:24:00.279Z,26.41
2022-08-15T14:27:09.534Z,26.39
2022-08-15T14:35:17.218Z,26.34
2022-08-15T14:37:49.208Z,26.26
2022-08-15T14:40:27.023Z,26.21
2022-08-15T14:42:57.784Z,26.08
2022-08-15T14:46:31.135Z,26.02
2022-08-15T14:48:47.267Z,26.07
2022-08-15T14:52:23.296Z,26.20
2022-08-15T14:54:39.690Z,26.27
2022-08-15T14:57:09.907Z,26.46
2022-08-15T14:59:55.879Z,26.64
2022-08-15T15:02:29.129Z,26.64
2022-08-15T15:04:59.973Z,26.58
2022-08-15T15:07:54.626Z,26.58
2022-08-15T15:10:25.522Z,26.54
2022-08-15T15:13:02.182Z,26.47
2022-08-15T15:15:40.037Z,26.49
2022-08-15T15:18:39.049Z,26.46
2022-08-15T15:21:02.863Z,26.43
2022-08-15T15:23:29.954Z,26.42
2022-08-15T15:25:56.814Z,26.37
2022-08-15T15:28:41.242Z,26.34
2022-08-15T15:31:13.204Z,26.36
2022-08-15T15:33:43.511Z,26.45
2022-08-15T15:36:30.324Z,26.51
2022-08-15T15:39:13.139Z,26.56
2022-08-15T15:41:47.865Z,26.53
2022-08-15T15:44:25.104Z,26.49
2022-08-15T15:47:05.198Z,26.49
2022-08-15T15:49:45.161Z,26.48
2022-08-15T15:52:13.825Z,26.45
2022-08-15T15:54:52.103Z,26.45
2022-08-15T15:57:25.015Z,26.52
2022-08-15T16:00:23.739Z,26.57
2022-08-15T16:02:49.843Z,26.71
2022-08-15T16:06:59.048Z,27.06
2022-08-15T16:08:33.166Z,27.37
2022-08-15T16:11:41.990Z,27.31
2022-08-15T16:14:22.238Z,27.11
2022-08-15T16:17:35.657Z,26.96
2022-08-15T16:20:43.380Z,26.80
2022-08-15T16:23:18.527Z,26.68
2022-08-15T16:26:01.541Z,26.57
2022-08-15T16:28:40.222Z,26.53
2022-08-15T16:31:47.974Z,26.54
2022-08-15T16:34:58.172Z,26.51
2022-08-15T16:37:42.556Z,26.55
2022-08-15T16:40:28.279Z,26.61
2022-08-15T16:43:55.239Z,26.76
2022-08-15T16:46:43.274Z,26.92
2022-08-15T16:49:24.776Z,27.16
2022-08-15T16:52:13.685Z,27.34
2022-08-15T16:55:13.799Z,27.37
2022-08-15T16:58:37.233Z,27.36
2022-08-15T17:01:39.364Z,27.13
2022-08-15T17:05:00.027Z,26.89
2022-08-15T17:08:13.271Z,26.69
2022-08-15T17:11:04.574Z,26.50
2022-08-15T17:14:04.108Z,26.36
2022-08-15T17:17:09.489Z,26.22
2022-08-15T17:19:46.729Z,26.20
2022-08-15T17:22:36.543Z,26.11
2022-08-15T17:25:31.197Z,25.98
2022-08-15T17:28:44.666Z,25.86
2022-08-15T17:31:18.271Z,25.72
2022-08-15T17:33:56.610Z,25.67
2022-08-15T17:36:24.774Z,25.62
2022-08-15T17:39:18.304Z,25.59
2022-08-15T17:41:53.853Z,25.54
2022-08-15T17:44:50.738Z,25.51
2022-08-15T17:47:33.973Z,25.46
2022-08-15T17:50:48.442Z,25.41
2022-08-15T17:53:18.765Z,25.38
2022-08-15T17:55:59.185Z,25.42
2022-08-15T17:58:48.699Z,25.39
2022-08-15T18:01:16.396Z,25.39
2022-08-15T18:03:43.905Z,25.38
2022-08-15T18:06:11.783Z,25.34
2022-08-15T18:08:54.282Z,25.31
2022-08-15T18:11:35.155Z,25.27
2022-08-15T18:14:39.411Z,25.26
2022-08-15T18:17:21.401Z,25.21
2022-08-15T18:20:31.855Z,25.14
2022-08-15T18:23:26.139Z,25.09
2022-08-15T18:26:53.315Z,25.04
2022-08-15T18:29:22.184Z,25.02
2022-08-15T18:32:05.616Z,24.99
2022-08-15T18:34:54.219Z,24.97
2022-08-15T18:37:35.735Z,24.91
2022-08-15T18:40:52.571Z,24.86
2022-08-15T18:43:25.169Z,24.84
2022-08-15T18:45:52.824Z,24.85
2022-08-15T18:48:35.262Z,24.82
2022-08-15T18:51:17.728Z,24.75
2022-08-15T18:53:58.432Z,24.70
2022-08-15T18:56:32.949Z,24.65
2022-08-15T18:59:24.495Z,24.63
2022-08-15T19:02:01.482Z,24.59
2022-08-15T19:04:50.371Z,24.57
2022-08-15T19:07:28.054Z,24.51
2022-08-15T19:10:12.730Z,24.46
2022-08-15T19:13:09.108Z,24.43
2022-08-15T19:15:54.457Z,24.46
2022-08-15T19:18:38.425Z,24.48
2022-08-15T19:21:12.133Z,24.49
2022-08-15T19:24:00.256Z,24.44
2022-08-15T19:26:49.232Z,24.37
2022-08-15T19:29:44.856Z,24.28
2022-08-15T19:32:51.008Z,24.21
2022-08-15T19:35:50.920Z,24.19
2022-08-15T19:38:34.784Z,24.11
2022-08-15T19:41:09.418Z,24.06
2022-08-15T19:44:50.283Z,24.00
2022-08-15T19:47:46.081Z,23.95
2022-08-15T19:50:49.802Z,23.90
2022-08-15T19:53:43.065Z,23.90
2022-08-15T19:57:14.113Z,23.92
2022-08-15T20:00:24.937Z,23.87
2022-08-15T20:03:13.189Z,23.85
2022-08-15T20:06:08.246Z,23.81
2022-08-15T20:09:02.987Z,23.79
2022-08-15T20:12:00.407Z,23.74
2022-08-15T20:14:52.009Z,23.73
2022-08-15T20:18:28.547Z,23.67
2022-08-15T20:21:22.521Z,23.54
2022-08-15T20:24:05.815Z,23.48
2022-08-15T20:26:56.925Z,23.48
2022-08-15T20:30:27.016Z,23.48
2022-08-15T20:33:08.386Z,23.48
2022-08-15T20:35:56.101Z,23.47
2022-08-15T20:38:52.701Z,23.48
2022-08-15T20:41:51.579Z,23.49
2022-08-15T20:44:40.221Z,23.47
2022-08-15T20:47:43.895Z,23.41
2022-08-15T20:50:21.833Z,23.37
2022-08-15T20:52:57.460Z,23.32
2022-08-15T20:55:53.115Z,23.22
2022-08-15T20:58:20.146Z,23.16
2022-08-15T21:01:18.245Z,23.11
2022-08-15T21:04:02.036Z,23.03
2022-08-15T21:06:49.673Z,23.02
2022-08-15T21:09:40.490Z,22.99
2022-08-15T21:12:55.678Z,22.99
2022-08-15T21:16:05.264Z,22.98
2022-08-15T21:18:59.420Z,22.98
2022-08-15T21:21:31.848Z,22.97
2022-08-15T21:24:02.114Z,22.96
2022-08-15T21:26:39.863Z,22.96
2022-08-15T21:29:17.886Z,22.91
2022-08-15T21:31:51.270Z,22.87
2022-08-15T21:34:40.667Z,22.82
2022-08-15T21:37:12.730Z,22.79
2022-08-15T21:40:05.265Z,22.84
2022-08-15T21:42:32.542Z,22.85
2022-08-15T21:45:02.668Z,22.81
2022-08-15T21:47:53.457Z,22.82
2022-08-15T21:50:41.884Z,22.81
2022-08-15T21:53:36.762Z,22.76
2022-08-15T21:56:25.662Z,22.73
2022-08-15T22:00:18.789Z,22.71
2022-08-15T22:03:05.717Z,22.70
2022-08-15T22:05:52.066Z,22.68
2022-08-15T22:08:39.521Z,22.62
2022-08-15T22:11:18.220Z,22.63
2022-08-15T22:13:52.142Z,22.62
2022-08-15T22:16:37.597Z,22.60
2022-08-15T22:19:07.124Z,22.62
2022-08-15T22:21:39.545Z,22.60
2022-08-15T22:24:11.253Z,22.59
2022-08-15T22:26:43.535Z,22.58
2022-08-15T22:29:49.112Z,22.58
2022-08-15T22:32:31.318Z,22.60
2022-08-15T22:35:09.220Z,22.60
2022-08-15T22:37:43.599Z,22.60
2022-08-15T22:40:18.697Z,22.59
2022-08-15T22:43:04.497Z,22.58
2022-08-15T22:45:49.427Z,22.57
2022-08-15T22:48:26.067Z,22.50
2022-08-15T22:51:01.296Z,22.45
2022-08-15T22:53:39.233Z,22.40
2022-08-15T22:56:46.309Z,22.33
2022-08-15T22:59:06.202Z,22.29
2022-08-15T23:01:44.427Z,22.28
2022-08-15T23:04:44.741Z,22.24
2022-08-15T23:07:22.176Z,22.19
2022-08-15T23:09:59.786Z,22.18
2022-08-15T23:12:44.017Z,22.17
2022-08-15T23:15:46.411Z,22.10
2022-08-15T23:18:31.777Z,22.01
2022-08-15T23:20:59.594Z,21.96
2022-08-15T23:23:36.747Z,21.93
2022-08-15T23:26:30.688Z,21.89
2022-08-15T23:29:01.449Z,21.87
2022-08-15T23:31:37.013Z,21.84
2022-08-15T23:34:09.372Z,21.80
2022-08-15T23:37:01.892Z,21.80
2022-08-15T23:39:49.221Z,21.76
2022-08-15T23:42:27.591Z,21.74
2022-08-15T23:44:58.685Z,21.68
2022-08-15T23:47:28.144Z,21.66
2022-08-15T23:49:58.190Z,21.62
2022-08-15T23:52:38.416Z,21.56
2022-08-15T23:55:14.463Z,21.51
2022-08-15T23:57:47.720Z,21.46
